Time;durP1;ratioP1;P1;durP2;ratioP2;P2;SDS_P1;SDS_P2;PMS_P1;PMS_P2;Temp;Humidity;BMP_temperature;BMP_pressure;BME280_temperature;BME280_humidity;BME280_pressure;Samples;Min_cycle;Max_cycle;Signal;HPM_P1;HPM_P2
2023/03/06 00:00:50;;;;;;;84.43;36.85;;;;;;;;;;5115723;28;20421;-82
2023/03/06 00:03:35;;;;;;;70.32;33.90;;;;;;;;;;5099723;28;20508;-82
2023/03/06 00:06:20;;;;;;;65.22;31.00;;;;;;;;;;5115496;28;20485;-82
2023/03/06 00:09:05;;;;;;;57.58;27.95;;;;;;;;;;5107100;28;20389;-83
2023/03/06 00:11:50;;;;;;;48.65;23.50;;;;;;;;;;5099571;28;20036;-82
2023/03/06 00:14:36;;;;;;;52.40;25.52;;;;;;;;;;5099945;28;20043;-82
2023/03/06 00:17:21;;;;;;;46.88;22.55;;;;;;;;;;5114982;28;20051;-81
2023/03/06 00:20:09;;;;;;;53.25;21.80;;;;;;;;;;5099588;28;20039;-82
2023/03/06 00:22:55;;;;;;;38.30;18.20;;;;;;;;;;5115516;28;20040;-82
2023/03/06 00:25:43;;;;;;;35.78;16.15;;;;;;;;;;5114810;28;20047;-82
2023/03/06 00:28:30;;;;;;;39.00;15.18;;;;;;;;;;5114537;28;20047;-82
2023/03/06 00:31:15;;;;;;;25.52;12.48;;;;;;;;;;5114897;28;20044;-82
2023/03/06 00:34:02;;;;;;;26.15;13.30;;;;;;;;;;5114367;28;20043;-83
2023/03/06 00:36:47;;;;;;;30.52;14.43;;;;;;;;;;5099590;28;20047;-82
2023/03/06 00:39:33;;;;;;;29.30;14.90;;;;;;;;;;5114976;28;20039;-82
2023/03/06 00:42:19;;;;;;;33.38;16.92;;;;;;;;;;5105766;28;20051;-81
2023/03/06 00:45:04;;;;;;;30.85;16.67;;;;;;;;;;5114288;28;20485;-83
2023/03/06 00:47:49;;;;;;;38.08;17.80;;;;;;;;;;5105917;28;20404;-82
2023/03/06 00:50:35;;;;;;;42.05;17.67;;;;;;;;;;5114430;28;20389;-82
2023/03/06 00:53:20;;;;;;;46.35;19.52;;;;;;;;;;5115500;28;20043;-82
2023/03/06 00:56:07;;;;;;;66.72;26.77;;;;;;;;;;5112369;28;20055;-82
2023/03/06 00:58:53;;;;;;;44.88;21.73;;;;;;;;;;5113135;28;20039;-83
2023/03/06 01:01:38;;;;;;;58.88;22.92;;;;;;;;;;5122014;28;20035;-83
2023/03/06 01:04:24;;;;;;;55.15;24.40;;;;;;;;;;5112939;28;20056;-81
2023/03/06 01:07:09;;;;;;;80.88;31.88;;;;;;;;;;5112811;28;20051;-82
2023/03/06 01:09:55;;;;;;;78.00;32.15;;;;;;;;;;5122031;28;20035;-82
2023/03/06 01:12:41;;;;;;;77.05;29.80;;;;;;;;;;5115811;28;20473;-82
2023/03/06 01:15:26;;;;;;;62.10;27.65;;;;;;;;;;5114059;28;20040;-82
2023/03/06 01:18:12;;;;;;;78.28;29.60;;;;;;;;;;5113782;28;20059;-82
2023/03/06 01:20:57;;;;;;;80.53;30.90;;;;;;;;;;5113957;28;20040;-82
2023/03/06 01:23:43;;;;;;;78.30;30.95;;;;;;;;;;5113923;28;20048;-82
2023/03/06 01:26:29;;;;;;;78.47;32.00;;;;;;;;;;5113723;28;20039;-82
2023/03/06 01:29:14;;;;;;;85.82;33.03;;;;;;;;;;5113870;28;20047;-83
2023/03/06 01:32:00;;;;;;;82.70;30.85;;;;;;;;;;5104854;28;20048;-82
2023/03/06 01:34:46;;;;;;;64.93;26.40;;;;;;;;;;5113449;28;20043;-81
2023/03/06 01:37:31;;;;;;;68.22;26.45;;;;;;;;;;5104909;28;20040;-82
2023/03/06 01:40:17;;;;;;;80.07;29.88;;;;;;;;;;5113417;28;20040;-82
2023/03/06 01:43:27;;;;;;;64.32;28.70;;;;;;;;;;5104980;28;20055;-82
2023/03/06 01:46:29;;;;;;;60.20;29.50;;;;;;;;;;5104726;28;20059;-83
2023/03/06 01:49:22;;;;;;;62.08;27.48;;;;;;;;;;5113644;28;20385;-82
2023/03/06 01:52:14;;;;;;;58.30;28.00;;;;;;;;;;5104911;28;20485;-82
2023/03/06 01:55:04;;;;;;;58.47;27.08;;;;;;;;;;5098627;28;20481;-82
2023/03/06 01:57:52;;;;;;;78.00;33.25;;;;;;;;;;5104194;28;20044;-82
2023/03/06 02:00:37;;;;;;;61.92;27.70;;;;;;;;;;5104733;28;20051;-82
2023/03/06 02:03:27;;;;;;;43.97;21.25;;;;;;;;;;5105216;28;20043;-82
2023/03/06 02:06:18;;;;;;;72.95;29.95;;;;;;;;;;5113275;28;20044;-82
2023/03/06 02:09:04;;;;;;;112.75;34.85;;;;;;;;;;5113303;28;20043;-81
2023/03/06 02:11:50;;;;;;;90.35;33.30;;;;;;;;;;5113424;28;20039;-82
2023/03/06 02:14:38;;;;;;;119.32;38.42;;;;;;;;;;5112955;28;20052;-82
2023/03/06 02:17:24;;;;;;;89.40;34.45;;;;;;;;;;5113518;28;20044;-81
2023/03/06 02:20:18;;;;;;;101.43;35.95;;;;;;;;;;5113171;28;20481;-82
2023/03/06 02:23:09;;;;;;;93.93;36.15;;;;;;;;;;5104828;28;20052;-81
2023/03/06 02:25:56;;;;;;;105.68;36.35;;;;;;;;;;5113231;28;20040;-81
2023/03/06 02:28:42;;;;;;;99.50;37.17;;;;;;;;;;5103915;28;20492;-82
2023/03/06 02:31:32;;;;;;;81.55;30.92;;;;;;;;;;5098239;28;20051;-82
2023/03/06 02:34:20;;;;;;;57.83;24.83;;;;;;;;;;5103753;28;20039;-82
2023/03/06 02:37:09;;;;;;;50.35;20.63;;;;;;;;;;5113224;28;20039;-82
2023/03/06 02:40:08;;;;;;;47.75;21.27;;;;;;;;;;5103872;28;20051;-80
2023/03/06 02:42:55;;;;;;;42.10;19.60;;;;;;;;;;5090118;28;20044;-82
2023/03/06 02:45:45;;;;;;;41.75;18.63;;;;;;;;;;5112790;28;20043;-82
2023/03/06 02:48:30;;;;;;;40.67;19.13;;;;;;;;;;5113503;28;20039;-82
2023/03/06 02:51:15;;;;;;;38.63;19.08;;;;;;;;;;5107529;28;20043;-81
2023/03/06 02:54:02;;;;;;;39.25;19.58;;;;;;;;;;5116342;28;20039;-82
2023/03/06 02:56:47;;;;;;;48.33;20.33;;;;;;;;;;5116592;28;20051;-81
2023/03/06 02:59:32;;;;;;;43.50;19.60;;;;;;;;;;5101328;28;20039;-81
2023/03/06 03:02:18;;;;;;;47.30;20.38;;;;;;;;;;5107675;28;20048;-81
2023/03/06 03:05:04;;;;;;;44.42;21.30;;;;;;;;;;5116598;28;20040;-82
2023/03/06 03:07:50;;;;;;;46.83;21.75;;;;;;;;;;5108223;28;20044;-81
2023/03/06 03:10:37;;;;;;;52.70;22.80;;;;;;;;;;5116042;28;20049;-82
2023/03/06 03:13:23;;;;;;;43.25;21.30;;;;;;;;;;5107968;28;20039;-82
2023/03/06 03:16:15;;;;;;;47.38;21.48;;;;;;;;;;5116148;28;20079;-82
2023/03/06 03:19:00;;;;;;;38.15;18.98;;;;;;;;;;5107535;28;20039;-81
2023/03/06 03:21:45;;;;;;;32.83;14.50;;;;;;;;;;5107772;28;20035;-81
2023/03/06 03:24:31;;;;;;;38.85;18.13;;;;;;;;;;5051186;23;20053;-80
2023/03/06 03:27:19;;;;;;;35.10;16.48;;;;;;;;;;5036397;28;20037;-81
2023/03/06 03:30:05;;;;;;;34.88;17.27;;;;;;;;;;5035730;28;20053;-79
2023/03/06 03:32:50;;;;;;;44.80;19.75;;;;;;;;;;5037357;28;20038;-81
2023/03/06 03:35:35;;;;;;;49.90;20.98;;;;;;;;;;5036408;28;20402;-80
2023/03/06 03:38:21;;;;;;;63.22;23.20;;;;;;;;;;5036600;28;20124;-80
2023/03/06 03:41:07;;;;;;;73.75;31.17;;;;;;;;;;5037507;28;20045;-79
2023/03/06 03:43:52;;;;;;;69.15;28.67;;;;;;;;;;5031863;28;20041;-79
2023/03/06 03:46:38;;;;;;;53.97;21.50;;;;;;;;;;5037568;28;20482;-80
2023/03/06 03:49:27;;;;;;;52.53;23.83;;;;;;;;;;5036912;28;20053;-80
2023/03/06 03:52:13;;;;;;;58.67;22.17;;;;;;;;;;5037391;28;20045;-80
2023/03/06 03:54:58;;;;;;;65.40;25.17;;;;;;;;;;5031498;28;20042;-80
2023/03/06 03:57:45;;;;;;;52.47;21.50;;;;;;;;;;5036838;28;20037;-80
2023/03/06 04:00:31;;;;;;;47.22;20.90;;;;;;;;;;5036560;28;20067;-79
2023/03/06 04:03:28;;;;;;;45.22;20.45;;;;;;;;;;5037086;28;20037;-80
2023/03/06 04:06:14;;;;;;;62.65;21.77;;;;;;;;;;5030448;28;20053;-80
2023/03/06 04:08:59;;;;;;;38.25;18.35;;;;;;;;;;5036947;28;20053;-80
2023/03/06 04:11:45;;;;;;;39.60;18.73;;;;;;;;;;5022886;28;20057;-80
2023/03/06 04:14:30;;;;;;;33.78;17.58;;;;;;;;;;5036810;28;20049;-80
2023/03/06 04:17:16;;;;;;;34.42;16.52;;;;;;;;;;5036457;28;20037;-79
2023/03/06 04:20:03;;;;;;;33.90;16.83;;;;;;;;;;5030521;28;20049;-80
2023/03/06 04:22:50;;;;;;;34.65;15.20;;;;;;;;;;5035747;28;20049;-80
2023/03/06 04:25:36;;;;;;;32.22;15.32;;;;;;;;;;5022395;28;20037;-80
2023/03/06 04:28:25;;;;;;;34.50;14.02;;;;;;;;;;5031150;28;20041;-80
2023/03/06 04:31:13;;;;;;;24.92;12.52;;;;;;;;;;5022486;28;20756;-80
2023/03/06 04:33:59;;;;;;;39.17;16.67;;;;;;;;;;5031257;28;20410;-80
2023/03/06 04:36:44;;;;;;;42.38;16.63;;;;;;;;;;5022261;28;20482;-80
2023/03/06 04:39:31;;;;;;;39.22;16.58;;;;;;;;;;5022249;28;20572;-80
2023/03/06 04:42:16;;;;;;;39.85;18.92;;;;;;;;;;5030650;28;20045;-80
2023/03/06 04:45:02;;;;;;;29.90;14.77;;;;;;;;;;5030397;28;20064;-80
2023/03/06 04:47:48;;;;;;;33.38;15.45;;;;;;;;;;5030445;28;20045;-80
2023/03/06 04:50:33;;;;;;;29.35;14.70;;;;;;;;;;5030212;28;20405;-80
2023/03/06 04:53:20;;;;;;;29.45;14.25;;;;;;;;;;5014821;28;20049;-80
2023/03/06 04:56:05;;;;;;;32.17;15.45;;;;;;;;;;5030238;28;20398;-80
2023/03/06 04:58:51;;;;;;;32.75;14.75;;;;;;;;;;5030692;28;20053;-80
2023/03/06 05:01:37;;;;;;;32.38;16.50;;;;;;;;;;5030059;28;20390;-80
2023/03/06 05:04:22;;;;;;;32.42;16.75;;;;;;;;;;5015120;28;20045;-80
2023/03/06 05:07:07;;;;;;;28.48;15.30;;;;;;;;;;5030175;28;20037;-80
2023/03/06 05:09:52;;;;;;;33.15;15.55;;;;;;;;;;5029767;28;20057;-80
2023/03/06 05:12:38;;;;;;;37.33;17.77;;;;;;;;;;5029445;28;20506;-80
2023/03/06 05:15:24;;;;;;;73.13;31.50;;;;;;;;;;5027585;28;20053;-80
2023/03/06 05:18:09;;;;;;;57.83;25.70;;;;;;;;;;5030348;28;20038;-80
2023/03/06 05:20:58;;;;;;;57.03;26.13;;;;;;;;;;5029712;28;20045;-80
2023/03/06 05:23:43;;;;;;;61.35;25.65;;;;;;;;;;5029998;28;20132;-80
2023/03/06 05:26:29;;;;;;;65.15;25.73;;;;;;;;;;5030154;28;20490;-80
2023/03/06 05:29:14;;;;;;;66.82;24.35;;;;;;;;;;5029292;28;20041;-80
2023/03/06 05:32:00;;;;;;;38.05;18.60;;;;;;;;;;5021620;28;20037;-80
2023/03/06 05:34:44;;;;;;;40.72;18.35;;;;;;;;;;5013274;28;20048;-80
2023/03/06 05:37:30;;;;;;;39.20;18.20;;;;;;;;;;5021211;28;20045;-80
2023/03/06 05:40:17;;;;;;;43.33;22.05;;;;;;;;;;5029841;28;20498;-80
2023/03/06 05:43:02;;;;;;;65.03;32.72;;;;;;;;;;5028628;28;20041;-80
2023/03/06 05:45:49;;;;;;;52.92;28.00;;;;;;;;;;5029535;28;20042;-80
2023/03/06 05:48:36;;;;;;;58.80;28.95;;;;;;;;;;5028889;28;20037;-78
2023/03/06 05:51:21;;;;;;;51.15;25.42;;;;;;;;;;5029464;28;20068;-79
2023/03/06 05:54:07;;;;;;;54.60;24.30;;;;;;;;;;5029288;28;20050;-80
2023/03/06 05:56:52;;;;;;;51.70;23.25;;;;;;;;;;5006940;28;20045;-81
2023/03/06 05:59:37;;;;;;;46.15;22.10;;;;;;;;;;5020156;28;20046;-80
2023/03/06 06:02:22;;;;;;;55.63;25.48;;;;;;;;;;5020893;28;20045;-80
2023/03/06 06:05:09;;;;;;;49.67;24.50;;;;;;;;;;5029594;28;20045;-81
2023/03/06 06:07:54;;;;;;;60.35;28.77;;;;;;;;;;5029580;28;20054;-80
2023/03/06 06:10:40;;;;;;;65.65;28.90;;;;;;;;;;5020916;28;20049;-79
2023/03/06 06:13:25;;;;;;;63.25;28.83;;;;;;;;;;5029354;28;20041;-80
2023/03/06 06:16:15;;;;;;;69.50;28.10;;;;;;;;;;5029198;28;20041;-80
2023/03/06 06:19:00;;;;;;;54.50;27.27;;;;;;;;;;5021168;28;20054;-81
2023/03/06 06:21:51;;;;;;;61.33;28.38;;;;;;;;;;5006872;28;20045;-81
2023/03/06 06:24:36;;;;;;;73.05;29.88;;;;;;;;;;5031030;28;20053;-80
2023/03/06 06:27:22;;;;;;;75.85;31.55;;;;;;;;;;5032840;28;20049;-81
2023/03/06 06:30:10;;;;;;;72.80;32.67;;;;;;;;;;5033273;28;20046;-80
2023/03/06 06:32:55;;;;;;;74.18;34.05;;;;;;;;;;5033051;28;20045;-80
2023/03/06 06:35:40;;;;;;;73.10;36.15;;;;;;;;;;5032652;28;20409;-80
2023/03/06 06:38:26;;;;;;;75.30;34.85;;;;;;;;;;5032734;28;20037;-82
2023/03/06 06:41:11;;;;;;;67.25;33.35;;;;;;;;;;5032685;28;20037;-82
2023/03/06 06:43:58;;;;;;;61.97;29.40;;;;;;;;;;5016558;28;20045;-81
2023/03/06 06:46:44;;;;;;;61.58;28.67;;;;;;;;;;5033061;28;20049;-82
2023/03/06 06:49:30;;;;;;;52.08;28.60;;;;;;;;;;5032387;28;20045;-82
2023/03/06 06:52:16;;;;;;;51.85;27.60;;;;;;;;;;5031692;28;20033;-82
2023/03/06 06:55:01;;;;;;;56.00;28.05;;;;;;;;;;5032542;28;20041;-81
2023/03/06 06:57:46;;;;;;;57.35;28.02;;;;;;;;;;5031674;28;20490;-81
2023/03/06 07:00:32;;;;;;;83.10;42.58;;;;;;;;;;5032911;28;20045;-82
2023/03/06 07:03:17;;;;;;;61.22;31.08;;;;;;;;;;5032197;28;20041;-80
2023/03/06 07:06:04;;;;;;;64.88;33.97;;;;;;;;;;5032517;28;20809;-81
2023/03/06 07:08:49;;;;;;;55.47;27.85;;;;;;;;;;5010384;28;20436;-81
2023/03/06 07:11:36;;;;;;;50.45;26.38;;;;;;;;;;5023898;28;20060;-82
2023/03/06 07:14:21;;;;;;;43.80;24.52;;;;;;;;;;5032774;28;20485;-81
2023/03/06 07:17:08;;;;;;;45.38;23.98;;;;;;;;;;5031562;28;20394;-82
2023/03/06 07:19:54;;;;;;;52.00;27.33;;;;;;;;;;5031912;28;20049;-81
2023/03/06 07:22:39;;;;;;;60.05;30.05;;;;;;;;;;5032177;28;20041;-81
2023/03/06 07:25:25;;;;;;;58.25;31.98;;;;;;;;;;5031160;28;20422;-83
2023/03/06 07:28:10;;;;;;;61.53;31.45;;;;;;;;;;5016597;28;20045;-81
2023/03/06 07:30:56;;;;;;;63.08;31.08;;;;;;;;;;5019351;28;20034;-83
2023/03/06 07:33:42;;;;;;;63.42;32.28;;;;;;;;;;5008611;28;20069;-82
2023/03/06 07:36:27;;;;;;;77.85;33.13;;;;;;;;;;5015249;28;20479;-80
2023/03/06 07:39:12;;;;;;;54.22;27.70;;;;;;;;;;5016416;28;20050;-80
2023/03/06 07:41:57;;;;;;;64.10;27.63;;;;;;;;;;5021696;28;20407;-83
2023/03/06 07:44:43;;;;;;;43.90;20.20;;;;;;;;;;5018525;28;20068;-82
2023/03/06 07:47:28;;;;;;;61.40;29.10;;;;;;;;;;5021433;28;20049;-82
2023/03/06 07:50:13;;;;;;;64.20;31.58;;;;;;;;;;5032979;28;20041;-83
2023/03/06 07:52:59;;;;;;;56.35;29.70;;;;;;;;;;5032391;28;20045;-84
2023/03/06 07:55:44;;;;;;;230.13;98.32;;;;;;;;;;5022956;28;20041;-83
2023/03/06 07:58:29;;;;;;;54.95;29.63;;;;;;;;;;5002651;28;20069;-82
2023/03/06 08:01:18;;;;;;;547.25;258.00;;;;;;;;;;5029056;28;20493;-84
2023/03/06 08:04:03;;;;;;;70.18;37.33;;;;;;;;;;5013623;28;20049;-84
2023/03/06 08:06:48;;;;;;;50.40;28.42;;;;;;;;;;5028487;28;20041;-84
2023/03/06 08:09:34;;;;;;;50.35;28.60;;;;;;;;;;5015273;28;20401;-85
2023/03/06 08:12:20;;;;;;;56.15;29.77;;;;;;;;;;5000743;28;20041;-84
2023/03/06 08:15:08;;;;;;;51.83;24.52;;;;;;;;;;5029623;28;20044;-83
2023/03/06 08:17:54;;;;;;;50.15;28.30;;;;;;;;;;5013079;28;20057;-85
2023/03/06 08:20:40;;;;;;;56.88;30.92;;;;;;;;;;5015938;28;20049;-82
2023/03/06 08:23:25;;;;;;;58.75;29.90;;;;;;;;;;5022916;28;20049;-86
2023/03/06 08:26:17;;;;;;;55.67;28.60;;;;;;;;;;5014374;28;20482;-84
2023/03/06 08:29:02;;;;;;;55.45;29.58;;;;;;;;;;5021487;28;20410;-85
2023/03/06 08:31:48;;;;;;;60.83;29.73;;;;;;;;;;5017407;28;20045;-84
2023/03/06 08:34:33;;;;;;;48.33;27.60;;;;;;;;;;5039204;28;20041;-84
2023/03/06 08:37:33;;;;;;;64.20;29.73;;;;;;;;;;2894204;23;20052;-84
2023/03/06 08:40:17;;;;;;;56.90;28.58;;;;;;;;;;5028918;28;20058;-81
2023/03/06 08:43:03;;;;;;;49.47;28.17;;;;;;;;;;5032606;28;20042;-82
2023/03/06 08:45:53;;;;;;;44.13;24.98;;;;;;;;;;5032227;28;20053;-82
2023/03/06 08:48:38;;;;;;;56.25;27.77;;;;;;;;;;5032728;28;20399;-82
2023/03/06 08:51:24;;;;;;;48.35;26.65;;;;;;;;;;5032291;28;20053;-83
2023/03/06 08:54:12;;;;;;;42.45;25.05;;;;;;;;;;5032408;28;20049;-82
2023/03/06 08:56:57;;;;;;;38.53;20.83;;;;;;;;;;5032579;28;20046;-82
2023/03/06 08:59:42;;;;;;;41.55;20.52;;;;;;;;;;5017285;28;20049;-82
2023/03/06 09:02:27;;;;;;;36.97;20.58;;;;;;;;;;5032263;28;20559;-82
2023/03/06 09:05:13;;;;;;;39.20;22.52;;;;;;;;;;5032434;28;20037;-82
2023/03/06 09:07:58;;;;;;;39.42;22.30;;;;;;;;;;5023559;28;20049;-83
2023/03/06 09:10:46;;;;;;;40.00;19.50;;;;;;;;;;5032207;28;20053;-83
2023/03/06 09:13:31;;;;;;;30.05;16.98;;;;;;;;;;5023782;28;20045;-82
2023/03/06 09:16:17;;;;;;;31.08;18.42;;;;;;;;;;5031425;28;20049;-82
2023/03/06 09:19:02;;;;;;;28.58;16.13;;;;;;;;;;5032262;28;20049;-82
2023/03/06 09:21:48;;;;;;;29.13;16.63;;;;;;;;;;5032229;28;20041;-82
2023/03/06 09:24:33;;;;;;;29.05;15.23;;;;;;;;;;5032992;28;20041;-84
2023/03/06 09:27:18;;;;;;;33.72;18.02;;;;;;;;;;5033200;28;20038;-82
2023/03/06 09:30:05;;;;;;;34.25;19.23;;;;;;;;;;5033032;28;20053;-82
2023/03/06 09:32:50;;;;;;;26.90;16.42;;;;;;;;;;5011218;28;20049;-83
2023/03/06 09:35:49;;;;;;;42.70;23.98;;;;;;;;;;5033313;28;20046;-82
2023/03/06 09:38:35;;;;;;;79.65;36.80;;;;;;;;;;5041300;28;20041;-82
2023/03/06 09:41:20;;;;;;;38.25;21.30;;;;;;;;;;5052687;28;20045;-82
2023/03/06 09:44:13;;;;;;;91.88;38.70;;;;;;;;;;5051988;28;20041;-83
2023/03/06 09:47:39;;;;;;;53.80;27.55;;;;;;;;;;5037876;28;20491;-85
2023/03/06 09:50:41;;;;;;;33.17;19.73;;;;;;;;;;5052968;28;20056;-83
2023/03/06 09:53:45;;;;;;;42.20;21.48;;;;;;;;;;5038124;28;20049;-83
2023/03/06 09:56:34;;;;;;;39.75;20.92;;;;;;;;;;5052777;28;20040;-83
2023/03/06 09:59:23;;;;;;;28.35;17.23;;;;;;;;;;5037589;28;20049;-83
2023/03/06 10:02:30;;;;;;;28.17;17.65;;;;;;;;;;5037629;28;20045;-82
2023/03/06 10:05:32;;;;;;;32.00;18.73;;;;;;;;;;5052609;28;20037;-83
2023/03/06 10:08:27;;;;;;;51.03;28.65;;;;;;;;;;5052685;28;20471;-83
2023/03/06 10:11:17;;;;;;;32.67;17.75;;;;;;;;;;5044017;28;20052;-82
2023/03/06 10:14:30;;;;;;;38.22;19.00;;;;;;;;;;5030642;28;20033;-82
2023/03/06 10:17:22;;;;;;;31.48;18.02;;;;;;;;;;5052655;28;20045;-83
2023/03/06 10:20:15;;;;;;;30.73;16.02;;;;;;;;;;5037607;28;20037;-83
2023/03/06 10:23:15;;;;;;;38.13;23.15;;;;;;;;;;5052633;28;20041;-83
2023/03/06 10:26:26;;;;;;;29.02;15.57;;;;;;;;;;5037215;28;20037;-83
2023/03/06 10:29:13;;;;;;;35.88;19.13;;;;;;;;;;5044506;28;20049;-83
2023/03/06 10:32:18;;;;;;;29.92;15.80;;;;;;;;;;5052486;28;20041;-83
2023/03/06 10:35:14;;;;;;;33.10;15.87;;;;;;;;;;5043807;28;20479;-82
2023/03/06 10:38:26;;;;;;;30.38;14.40;;;;;;;;;;5037153;28;20281;-83
2023/03/06 10:41:12;;;;;;;28.38;14.93;;;;;;;;;;5052532;28;20041;-83
2023/03/06 10:43:58;;;;;;;33.70;16.50;;;;;;;;;;5052176;28;20044;-83
2023/03/06 10:46:46;;;;;;;28.55;15.35;;;;;;;;;;5037419;28;20490;-82
2023/03/06 10:49:35;;;;;;;30.23;15.27;;;;;;;;;;5052627;28;20040;-83
2023/03/06 10:52:21;;;;;;;12.98;7.88;;;;;;;;;;5051981;28;20045;-83
2023/03/06 10:55:28;;;;;;;14.93;8.68;;;;;;;;;;5037358;28;20387;-82
2023/03/06 10:58:18;;;;;;;14.32;8.63;;;;;;;;;;5037109;28;20399;-82
2023/03/06 11:01:19;;;;;;;15.32;8.45;;;;;;;;;;5052540;28;20041;-83
2023/03/06 11:04:21;;;;;;;17.73;9.60;;;;;;;;;;5052384;28;20041;-83
2023/03/06 11:07:27;;;;;;;15.65;9.10;;;;;;;;;;5037339;28;20045;-83
2023/03/06 11:10:18;;;;;;;19.08;9.15;;;;;;;;;;5052447;28;20056;-82
2023/03/06 11:13:17;;;;;;;17.48;8.60;;;;;;;;;;5040812;28;20387;-84
2023/03/06 11:16:18;;;;;;;21.10;9.40;;;;;;;;;;5047861;28;20040;-84
2023/03/06 11:19:16;;;;;;;17.45;8.68;;;;;;;;;;5040564;28;20045;-84
2023/03/06 11:22:05;;;;;;;14.68;8.27;;;;;;;;;;5055816;28;20052;-84
2023/03/06 11:24:53;;;;;;;13.35;7.75;;;;;;;;;;5055204;28;20037;-85
2023/03/06 11:27:42;;;;;;;12.20;7.40;;;;;;;;;;5055960;28;20048;-85
2023/03/06 11:30:42;;;;;;;10.60;7.05;;;;;;;;;;5046876;28;20045;-84
2023/03/06 11:33:34;;;;;;;13.02;7.75;;;;;;;;;;5055165;28;20482;-84
2023/03/06 11:36:42;;;;;;;14.57;7.78;;;;;;;;;;5055188;28;20041;-84
2023/03/06 11:39:36;;;;;;;17.05;7.43;;;;;;;;;;5055288;28;20049;-85
2023/03/06 11:42:41;;;;;;;13.95;8.90;;;;;;;;;;5046758;28;20056;-83
2023/03/06 11:45:53;;;;;;;15.52;8.40;;;;;;;;;;5046993;28;20056;-84
2023/03/06 11:48:47;;;;;;;16.13;8.38;;;;;;;;;;5055403;28;20057;-83
2023/03/06 11:51:38;;;;;;;15.70;8.27;;;;;;;;;;5048309;28;20045;-83
2023/03/06 11:54:23;;;;;;;12.07;7.28;;;;;;;;;;5054871;28;20402;-83
2023/03/06 11:57:19;;;;;;;13.88;7.82;;;;;;;;;;5039737;28;20394;-83
2023/03/06 12:00:18;;;;;;;15.93;8.50;;;;;;;;;;5053553;28;20041;-83
2023/03/06 12:03:42;;;;;;;18.50;11.18;;;;;;;;;;5055732;28;20045;-82
2023/03/06 12:07:09;;;;;;;18.20;10.50;;;;;;;;;;5052339;28;20056;-83
2023/03/06 12:10:39;;;;;;;21.55;11.60;;;;;;;;;;5033866;28;20486;-83
2023/03/06 12:13:37;;;;;;;17.98;9.32;;;;;;;;;;5061371;28;20049;-83
2023/03/06 12:17:02;;;;;;;19.27;8.48;;;;;;;;;;5045404;28;20045;-83
2023/03/06 12:20:15;;;;;;;15.90;9.30;;;;;;;;;;5026459;28;20049;-83
2023/03/06 12:23:15;;;;;;;17.60;9.45;;;;;;;;;;5053883;28;20049;-83
2023/03/06 12:26:22;;;;;;;16.98;9.50;;;;;;;;;;5053680;28;20475;-84
2023/03/06 12:29:13;;;;;;;15.60;8.40;;;;;;;;;;5054552;28;20041;-83
2023/03/06 12:32:17;;;;;;;13.45;8.23;;;;;;;;;;5054257;28;20044;-84
2023/03/06 12:35:21;;;;;;;14.80;9.43;;;;;;;;;;5054243;28;20049;-83
2023/03/06 12:38:15;;;;;;;19.23;9.27;;;;;;;;;;5053822;28;20065;-83
2023/03/06 12:41:23;;;;;;;15.43;8.40;;;;;;;;;;5054358;28;20049;-83
2023/03/06 12:44:30;;;;;;;17.02;9.25;;;;;;;;;;5054067;28;20052;-82
2023/03/06 12:47:18;;;;;;;17.50;9.68;;;;;;;;;;5045675;28;20041;-83
2023/03/06 12:50:16;;;;;;;15.15;9.60;;;;;;;;;;5053970;28;20061;-83
2023/03/06 12:53:04;;;;;;;16.33;8.57;;;;;;;;;;5053837;28;20398;-83
2023/03/06 12:55:50;;;;;;;12.48;7.32;;;;;;;;;;5053529;28;20494;-83
2023/03/06 12:58:47;;;;;;;12.20;6.30;;;;;;;;;;5054163;28;20067;-83
2023/03/06 13:01:54;;;;;;;11.13;7.00;;;;;;;;;;5053937;28;20049;-83
2023/03/06 13:05:03;;;;;;;11.30;7.15;;;;;;;;;;5054062;28;20045;-83
2023/03/06 13:08:17;;;;;;;11.48;6.00;;;;;;;;;;5053884;28;20049;-83
2023/03/06 13:11:26;;;;;;;12.13;6.70;;;;;;;;;;5038915;28;20044;-83
2023/03/06 13:14:32;;;;;;;11.43;6.15;;;;;;;;;;5038854;28;20045;-83
2023/03/06 13:17:25;;;;;;;8.52;5.53;;;;;;;;;;5053677;28;20045;-83
2023/03/06 13:20:13;;;;;;;7.97;5.70;;;;;;;;;;5053445;28;20049;-82
2023/03/06 13:22:58;;;;;;;11.25;6.63;;;;;;;;;;5053341;28;20041;-83
2023/03/06 13:25:48;;;;;;;9.02;5.55;;;;;;;;;;5053364;28;20049;-83
2023/03/06 13:28:47;;;;;;;12.80;7.13;;;;;;;;;;5053110;28;20044;-83
2023/03/06 13:31:33;;;;;;;13.95;7.75;;;;;;;;;;5053726;28;20041;-83
2023/03/06 13:34:31;;;;;;;11.60;6.70;;;;;;;;;;5052649;28;20045;-83
2023/03/06 13:37:17;;;;;;;12.05;6.90;;;;;;;;;;5053448;28;20041;-84
2023/03/06 13:40:02;;;;;;;13.32;7.70;;;;;;;;;;5052628;28;20053;-84
2023/03/06 13:42:48;;;;;;;15.40;8.57;;;;;;;;;;5052901;28;20045;-83
2023/03/06 13:45:45;;;;;;;9.65;5.65;;;;;;;;;;5053213;28;20482;-84
2023/03/06 13:48:34;;;;;;;12.88;7.70;;;;;;;;;;5052762;28;20045;-84
2023/03/06 13:51:27;;;;;;;21.80;15.32;;;;;;;;;;5038085;28;20479;-84
2023/03/06 13:54:27;;;;;;;19.23;11.45;;;;;;;;;;5052630;28;20056;-84
2023/03/06 13:57:40;;;;;;;20.58;10.60;;;;;;;;;;5053080;28;20049;-84
2023/03/06 14:01:16;;;;;;;18.33;12.15;;;;;;;;;;5037927;28;20480;-83
2023/03/06 14:04:30;;;;;;;15.05;9.05;;;;;;;;;;5033307;28;20041;-84
2023/03/06 14:07:23;;;;;;;15.30;9.70;;;;;;;;;;5054773;28;20049;-84
2023/03/06 14:10:24;;;;;;;17.73;10.07;;;;;;;;;;5054692;28;20049;-84
2023/03/06 14:13:23;;;;;;;13.85;8.55;;;;;;;;;;5041701;28;20053;-84
2023/03/06 14:16:18;;;;;;;16.75;9.15;;;;;;;;;;5046536;28;20053;-84
2023/03/06 14:19:05;;;;;;;;;;;;;;;;;;5040499;28;20041;-84
2023/03/06 14:21:56;;;;;;;15.05;9.25;;;;;;;;;;5055918;28;19916;-82
2023/03/06 14:24:55;;;;;;;18.48;9.65;;;;;;;;;;5043849;28;20052;-87
2023/03/06 14:27:52;;;;;;;20.73;10.80;;;;;;;;;;5043397;28;20045;-86
2023/03/06 14:30:49;;;;;;;24.45;12.85;;;;;;;;;;5038185;28;20041;-86
2023/03/06 14:34:03;;;;;;;23.52;14.88;;;;;;;;;;5052228;28;20045;-86
2023/03/06 14:36:53;;;;;;;21.85;12.27;;;;;;;;;;5043577;28;20403;-86
2023/03/06 14:39:42;;;;;;;26.65;14.13;;;;;;;;;;5037298;28;20049;-85
2023/03/06 14:42:28;;;;;;;21.17;12.60;;;;;;;;;;5052075;28;20411;-81
2023/03/06 14:45:18;;;;;;;25.20;13.52;;;;;;;;;;5054279;28;20041;-82
2023/03/06 14:48:05;;;;;;;27.08;15.63;;;;;;;;;;5055662;28;20044;-82
2023/03/06 14:50:55;;;;;;;33.08;18.48;;;;;;;;;;5055935;28;20040;-82
2023/03/06 14:53:43;;;;;;;27.42;16.45;;;;;;;;;;5058314;28;20045;-82
2023/03/06 14:56:30;;;;;;;31.90;18.38;;;;;;;;;;5050000;28;20041;-81
2023/03/06 14:59:20;;;;;;;22.70;14.73;;;;;;;;;;5058871;28;20390;-81
2023/03/06 15:02:10;;;;;;;22.92;13.35;;;;;;;;;;5057949;28;20041;-82
2023/03/06 15:05:04;;;;;;;29.95;16.80;;;;;;;;;;5057679;28;20037;-82
2023/03/06 15:07:51;;;;;;;74.50;35.10;;;;;;;;;;5043468;28;20037;-81
2023/03/06 15:10:37;;;;;;;37.03;18.88;;;;;;;;;;5049984;28;20041;-82
2023/03/06 15:13:25;;;;;;;31.63;17.63;;;;;;;;;;5055913;28;20048;-82
2023/03/06 15:16:13;;;;;;;63.72;37.88;;;;;;;;;;5055365;28;20041;-82
2023/03/06 15:19:01;;;;;;;105.78;58.28;;;;;;;;;;5047340;28;20053;-82
2023/03/06 15:21:50;;;;;;;67.03;33.47;;;;;;;;;;5040804;28;20045;-82
2023/03/06 15:24:35;;;;;;;413.63;266.40;;;;;;;;;;5055160;28;20485;-82
2023/03/06 15:27:28;;;;;;;75.20;49.75;;;;;;;;;;5046743;28;20041;-82
2023/03/06 15:30:31;;;;;;;45.70;25.30;;;;;;;;;;5055096;28;20395;-82
2023/03/06 15:33:26;;;;;;;68.95;35.17;;;;;;;;;;5055029;28;20049;-82
2023/03/06 15:36:19;;;;;;;64.72;36.10;;;;;;;;;;5055169;28;20148;-82
2023/03/06 15:39:27;;;;;;;83.28;41.88;;;;;;;;;;5055133;28;20045;-82
2023/03/06 15:42:18;;;;;;;119.32;58.83;;;;;;;;;;5054861;28;20499;-82
2023/03/06 15:45:15;;;;;;;128.27;66.40;;;;;;;;;;5054591;28;20049;-81
2023/03/06 15:48:01;;;;;;;71.30;40.85;;;;;;;;;;5055066;28;20045;-81
2023/03/06 15:50:47;;;;;;;53.78;27.08;;;;;;;;;;5045547;28;20044;-82
2023/03/06 15:53:32;;;;;;;55.35;35.63;;;;;;;;;;5054263;28;20053;-82
2023/03/06 15:56:23;;;;;;;58.70;33.83;;;;;;;;;;5053420;28;20037;-82
2023/03/06 15:59:23;;;;;;;56.95;31.77;;;;;;;;;;5053935;28;20045;-82
2023/03/06 16:02:16;;;;;;;60.42;32.80;;;;;;;;;;5054589;28;20049;-81
2023/03/06 16:05:01;;;;;;;66.70;38.20;;;;;;;;;;5054351;28;20045;-81
2023/03/06 16:07:47;;;;;;;66.80;36.40;;;;;;;;;;5054310;28;20049;-81
2023/03/06 16:10:38;;;;;;;56.15;30.17;;;;;;;;;;5039542;28;20049;-81
2023/03/06 16:13:27;;;;;;;51.05;29.60;;;;;;;;;;5054657;28;20037;-82
2023/03/06 16:16:24;;;;;;;54.10;29.52;;;;;;;;;;5054075;28;20506;-82
2023/03/06 16:19:15;;;;;;;62.50;29.48;;;;;;;;;;5039015;28;20045;-81
2023/03/06 16:22:00;;;;;;;71.55;38.42;;;;;;;;;;5054606;28;20045;-82
2023/03/06 16:24:46;;;;;;;87.45;43.92;;;;;;;;;;5054354;28;20044;-80
2023/03/06 16:27:31;;;;;;;94.22;47.00;;;;;;;;;;5054500;28;20403;-80
2023/03/06 16:30:18;;;;;;;89.22;45.03;;;;;;;;;;5054124;28;20049;-80
2023/03/06 16:33:04;;;;;;;83.30;42.72;;;;;;;;;;5054092;28;20495;-81